sensor_id;sensor_type;location;lat;lon;timestamp;P1;durP1;ratioP1;P2;durP2;ratioP2
9420;SDS011;4749;51.398;5.466;2022-07-29T00:01:01;4.80;;;1.30;;
9420;SDS011;4749;51.398;5.466;2022-07-29T00:03:28;2.75;;;1.00;;
9420;SDS011;4749;51.398;5.466;2022-07-29T00:05:55;2.60;;;1.00;;
9420;SDS011;4749;51.398;5.466;2022-07-29T00:08:22;4.15;;;1.48;;
9420;SDS011;4749;51.398;5.466;2022-07-29T00:10:50;4.97;;;1.10;;
9420;SDS011;4749;51.398;5.466;2022-07-29T00:13:17;2.70;;;1.00;;
9420;SDS011;4749;51.398;5.466;2022-07-29T00:15:57;4.40;;;0.98;;
9420;SDS011;4749;51.398;5.466;2022-07-29T00:18:30;5.28;;;1.40;;
9420;SDS011;4749;51.398;5.466;2022-07-29T00:20:58;1.40;;;1.00;;
9420;SDS011;4749;51.398;5.466;2022-07-29T00:23:25;3.28;;;1.20;;
9420;SDS011;4749;51.398;5.466;2022-07-29T00:25:52;2.58;;;1.20;;
9420;SDS011;4749;51.398;5.466;2022-07-29T00:28:19;3.17;;;1.13;;
9420;SDS011;4749;51.398;5.466;2022-07-29T00:30:46;5.57;;;1.33;;
9420;SDS011;4749;51.398;5.466;2022-07-29T00:33:13;3.83;;;1.23;;
9420;SDS011;4749;51.398;5.466;2022-07-29T00:35:40;5.47;;;2.22;;
9420;SDS011;4749;51.398;5.466;2022-07-29T00:38:11;2.92;;;1.10;;
9420;SDS011;4749;51.398;5.466;2022-07-29T00:40:40;4.35;;;1.10;;
9420;SDS011;4749;51.398;5.466;2022-07-29T00:43:09;6.45;;;1.25;;
9420;SDS011;4749;51.398;5.466;2022-07-29T00:45:37;4.55;;;1.92;;
9420;SDS011;4749;51.398;5.466;2022-07-29T00:48:05;3.67;;;1.52;;
9420;SDS011;4749;51.398;5.466;2022-07-29T00:50:32;5.53;;;1.50;;
9420;SDS011;4749;51.398;5.466;2022-07-29T00:52:59;4.40;;;1.60;;
9420;SDS011;4749;51.398;5.466;2022-07-29T00:55:28;4.90;;;1.52;;
9420;SDS011;4749;51.398;5.466;2022-07-29T00:57:56;4.90;;;2.10;;
9420;SDS011;4749;51.398;5.466;2022-07-29T01:00:25;5.85;;;2.10;;
9420;SDS011;4749;51.398;5.466;2022-07-29T01:02:54;2.35;;;1.70;;
9420;SDS011;4749;51.398;5.466;2022-07-29T01:05:21;3.13;;;1.95;;
9420;SDS011;4749;51.398;5.466;2022-07-29T01:08:11;4.53;;;1.48;;
9420;SDS011;4749;51.398;5.466;2022-07-29T01:10:40;3.97;;;1.50;;
9420;SDS011;4749;51.398;5.466;2022-07-29T01:13:10;4.95;;;1.80;;
9420;SDS011;4749;51.398;5.466;2022-07-29T01:15:40;5.78;;;1.77;;
9420;SDS011;4749;51.398;5.466;2022-07-29T01:18:32;6.05;;;1.70;;
9420;SDS011;4749;51.398;5.466;2022-07-29T01:24:20;4.65;;;1.60;;
9420;SDS011;4749;51.398;5.466;2022-07-29T01:29:52;3.58;;;2.15;;
9420;SDS011;4749;51.398;5.466;2022-07-29T01:32:29;4.88;;;1.80;;
9420;SDS011;4749;51.398;5.466;2022-07-29T01:35:21;3.92;;;1.88;;
9420;SDS011;4749;51.398;5.466;2022-07-29T01:38:12;6.35;;;1.75;;
9420;SDS011;4749;51.398;5.466;2022-07-29T01:40:52;4.55;;;2.05;;
9420;SDS011;4749;51.398;5.466;2022-07-29T01:43:32;2.88;;;1.88;;
9420;SDS011;4749;51.398;5.466;2022-07-29T01:46:11;10.82;;;2.53;;
9420;SDS011;4749;51.398;5.466;2022-07-29T01:48:47;3.38;;;1.63;;
9420;SDS011;4749;51.398;5.466;2022-07-29T01:51:20;3.28;;;2.00;;
9420;SDS011;4749;51.398;5.466;2022-07-29T01:54:08;3.25;;;2.00;;
9420;SDS011;4749;51.398;5.466;2022-07-29T01:56:47;3.97;;;1.77;;
9420;SDS011;4749;51.398;5.466;2022-07-29T01:59:18;3.17;;;1.98;;
9420;SDS011;4749;51.398;5.466;2022-07-29T02:01:47;3.03;;;2.13;;
9420;SDS011;4749;51.398;5.466;2022-07-29T02:04:20;4.57;;;2.00;;
9420;SDS011;4749;51.398;5.466;2022-07-29T02:06:57;4.03;;;2.00;;
9420;SDS011;4749;51.398;5.466;2022-07-29T02:09:29;3.90;;;2.25;;
9420;SDS011;4749;51.398;5.466;2022-07-29T02:11:59;7.68;;;2.35;;
9420;SDS011;4749;51.398;5.466;2022-07-29T02:14:28;3.88;;;2.17;;
9420;SDS011;4749;51.398;5.466;2022-07-29T02:17:03;5.32;;;2.10;;
9420;SDS011;4749;51.398;5.466;2022-07-29T02:19:31;3.80;;;2.28;;
9420;SDS011;4749;51.398;5.466;2022-07-29T02:22:00;3.95;;;2.03;;
9420;SDS011;4749;51.398;5.466;2022-07-29T02:24:28;6.45;;;2.42;;
9420;SDS011;4749;51.398;5.466;2022-07-29T02:26:57;3.40;;;2.25;;
9420;SDS011;4749;51.398;5.466;2022-07-29T02:29:27;4.45;;;2.13;;
9420;SDS011;4749;51.398;5.466;2022-07-29T02:31:57;3.38;;;2.30;;
9420;SDS011;4749;51.398;5.466;2022-07-29T02:34:26;3.42;;;2.58;;
9420;SDS011;4749;51.398;5.466;2022-07-29T02:36:54;2.90;;;2.25;;
9420;SDS011;4749;51.398;5.466;2022-07-29T02:39:22;6.22;;;2.38;;
9420;SDS011;4749;51.398;5.466;2022-07-29T02:41:57;4.03;;;2.38;;
9420;SDS011;4749;51.398;5.466;2022-07-29T02:44:30;6.00;;;2.10;;
9420;SDS011;4749;51.398;5.466;2022-07-29T02:49:42;6.50;;;2.45;;
9420;SDS011;4749;51.398;5.466;2022-07-29T02:52:23;5.55;;;2.72;;
9420;SDS011;4749;51.398;5.466;2022-07-29T02:57:49;4.38;;;2.45;;
9420;SDS011;4749;51.398;5.466;2022-07-29T03:00:47;4.10;;;2.92;;
9420;SDS011;4749;51.398;5.466;2022-07-29T03:03:18;4.10;;;2.42;;
9420;SDS011;4749;51.398;5.466;2022-07-29T03:05:47;4.10;;;2.10;;
9420;SDS011;4749;51.398;5.466;2022-07-29T03:08:14;4.85;;;2.90;;
9420;SDS011;4749;51.398;5.466;2022-07-29T03:10:43;4.25;;;2.67;;
9420;SDS011;4749;51.398;5.466;2022-07-29T03:13:13;5.20;;;2.80;;
9420;SDS011;4749;51.398;5.466;2022-07-29T03:15:42;4.50;;;2.40;;
9420;SDS011;4749;51.398;5.466;2022-07-29T03:18:11;4.50;;;2.47;;
9420;SDS011;4749;51.398;5.466;2022-07-29T03:20:38;3.33;;;2.45;;
9420;SDS011;4749;51.398;5.466;2022-07-29T03:23:07;5.22;;;2.38;;
9420;SDS011;4749;51.398;5.466;2022-07-29T03:25:35;3.97;;;2.78;;
9420;SDS011;4749;51.398;5.466;2022-07-29T03:28:02;4.57;;;2.75;;
9420;SDS011;4749;51.398;5.466;2022-07-29T03:30:29;6.72;;;3.10;;
9420;SDS011;4749;51.398;5.466;2022-07-29T03:32:57;3.67;;;2.47;;
9420;SDS011;4749;51.398;5.466;2022-07-29T03:35:24;3.13;;;2.40;;
9420;SDS011;4749;51.398;5.466;2022-07-29T03:37:51;4.85;;;2.58;;
9420;SDS011;4749;51.398;5.466;2022-07-29T03:40:21;5.82;;;2.92;;
9420;SDS011;4749;51.398;5.466;2022-07-29T03:42:54;4.25;;;2.35;;
9420;SDS011;4749;51.398;5.466;2022-07-29T03:45:22;5.63;;;2.92;;
9420;SDS011;4749;51.398;5.466;2022-07-29T03:47:53;3.40;;;2.63;;
9420;SDS011;4749;51.398;5.466;2022-07-29T03:50:26;5.35;;;2.67;;
9420;SDS011;4749;51.398;5.466;2022-07-29T03:52:56;4.93;;;2.33;;
9420;SDS011;4749;51.398;5.466;2022-07-29T03:55:25;8.40;;;2.83;;
9420;SDS011;4749;51.398;5.466;2022-07-29T03:57:54;3.22;;;2.53;;
9420;SDS011;4749;51.398;5.466;2022-07-29T04:00:24;3.85;;;2.67;;
9420;SDS011;4749;51.398;5.466;2022-07-29T04:02:53;5.15;;;2.90;;
9420;SDS011;4749;51.398;5.466;2022-07-29T04:05:20;5.57;;;2.90;;
9420;SDS011;4749;51.398;5.466;2022-07-29T04:07:47;4.10;;;2.42;;
9420;SDS011;4749;51.398;5.466;2022-07-29T04:10:15;8.18;;;3.10;;
9420;SDS011;4749;51.398;5.466;2022-07-29T04:12:57;5.93;;;3.25;;
9420;SDS011;4749;51.398;5.466;2022-07-29T04:15:25;7.00;;;3.30;;
9420;SDS011;4749;51.398;5.466;2022-07-29T04:17:57;4.82;;;3.38;;
9420;SDS011;4749;51.398;5.466;2022-07-29T04:20:25;4.88;;;3.05;;
9420;SDS011;4749;51.398;5.466;2022-07-29T04:22:53;6.88;;;3.30;;
9420;SDS011;4749;51.398;5.466;2022-07-29T04:25:20;4.47;;;3.28;;
9420;SDS011;4749;51.398;5.466;2022-07-29T04:27:47;5.15;;;2.92;;
9420;SDS011;4749;51.398;5.466;2022-07-29T04:30:26;3.63;;;2.72;;
9420;SDS011;4749;51.398;5.466;2022-07-29T04:32:53;8.20;;;3.63;;
9420;SDS011;4749;51.398;5.466;2022-07-29T04:35:20;3.40;;;3.10;;
9420;SDS011;4749;51.398;5.466;2022-07-29T04:37:48;4.30;;;2.78;;
9420;SDS011;4749;51.398;5.466;2022-07-29T04:40:15;4.88;;;3.42;;
9420;SDS011;4749;51.398;5.466;2022-07-29T04:42:42;4.80;;;3.40;;
9420;SDS011;4749;51.398;5.466;2022-07-29T04:45:13;6.65;;;3.38;;
9420;SDS011;4749;51.398;5.466;2022-07-29T04:47:41;5.28;;;3.65;;
9420;SDS011;4749;51.398;5.466;2022-07-29T04:50:09;5.10;;;3.22;;
9420;SDS011;4749;51.398;5.466;2022-07-29T04:52:36;4.53;;;2.90;;
9420;SDS011;4749;51.398;5.466;2022-07-29T04:55:04;6.20;;;3.28;;
9420;SDS011;4749;51.398;5.466;2022-07-29T04:57:32;5.88;;;3.40;;
9420;SDS011;4749;51.398;5.466;2022-07-29T04:59:59;5.82;;;3.38;;
9420;SDS011;4749;51.398;5.466;2022-07-29T05:02:27;5.47;;;3.22;;
9420;SDS011;4749;51.398;5.466;2022-07-29T05:04:54;4.63;;;3.10;;
9420;SDS011;4749;51.398;5.466;2022-07-29T05:07:21;5.55;;;3.38;;
9420;SDS011;4749;51.398;5.466;2022-07-29T05:09:49;5.53;;;3.45;;
9420;SDS011;4749;51.398;5.466;2022-07-29T05:12:16;4.05;;;3.17;;
9420;SDS011;4749;51.398;5.466;2022-07-29T05:14:43;5.57;;;3.28;;
9420;SDS011;4749;51.398;5.466;2022-07-29T05:17:10;6.30;;;3.60;;
9420;SDS011;4749;51.398;5.466;2022-07-29T05:19:37;7.07;;;3.40;;
9420;SDS011;4749;51.398;5.466;2022-07-29T05:22:05;6.00;;;3.38;;
9420;SDS011;4749;51.398;5.466;2022-07-29T05:24:32;5.35;;;2.80;;
9420;SDS011;4749;51.398;5.466;2022-07-29T05:26:59;4.50;;;2.83;;
9420;SDS011;4749;51.398;5.466;2022-07-29T05:29:26;5.70;;;3.03;;
9420;SDS011;4749;51.398;5.466;2022-07-29T05:32:10;4.88;;;3.33;;
9420;SDS011;4749;51.398;5.466;2022-07-29T05:34:38;3.05;;;2.75;;
9420;SDS011;4749;51.398;5.466;2022-07-29T05:37:17;6.95;;;3.28;;
9420;SDS011;4749;51.398;5.466;2022-07-29T05:39:46;4.53;;;3.42;;
9420;SDS011;4749;51.398;5.466;2022-07-29T05:42:22;6.93;;;3.33;;
9420;SDS011;4749;51.398;5.466;2022-07-29T05:44:50;5.80;;;3.65;;
9420;SDS011;4749;51.398;5.466;2022-07-29T05:47:18;4.50;;;2.80;;
9420;SDS011;4749;51.398;5.466;2022-07-29T05:49:45;3.78;;;3.13;;
9420;SDS011;4749;51.398;5.466;2022-07-29T05:52:12;4.00;;;3.08;;
9420;SDS011;4749;51.398;5.466;2022-07-29T05:54:39;3.35;;;3.00;;
9420;SDS011;4749;51.398;5.466;2022-07-29T05:57:07;5.60;;;2.97;;
9420;SDS011;4749;51.398;5.466;2022-07-29T05:59:37;5.07;;;3.03;;
9420;SDS011;4749;51.398;5.466;2022-07-29T06:02:04;5.95;;;3.40;;
9420;SDS011;4749;51.398;5.466;2022-07-29T06:04:32;3.72;;;3.20;;
9420;SDS011;4749;51.398;5.466;2022-07-29T06:07:00;5.93;;;3.47;;
9420;SDS011;4749;51.398;5.466;2022-07-29T06:09:27;4.30;;;3.25;;
9420;SDS011;4749;51.398;5.466;2022-07-29T06:11:55;4.97;;;3.25;;
9420;SDS011;4749;51.398;5.466;2022-07-29T06:14:24;7.28;;;3.28;;
9420;SDS011;4749;51.398;5.466;2022-07-29T06:16:52;5.25;;;3.00;;
9420;SDS011;4749;51.398;5.466;2022-07-29T06:19:20;6.20;;;3.50;;
9420;SDS011;4749;51.398;5.466;2022-07-29T06:21:47;4.30;;;2.70;;
9420;SDS011;4749;51.398;5.466;2022-07-29T06:24:15;8.15;;;3.20;;
9420;SDS011;4749;51.398;5.466;2022-07-29T06:26:43;3.47;;;2.80;;
9420;SDS011;4749;51.398;5.466;2022-07-29T06:29:11;5.53;;;3.50;;
9420;SDS011;4749;51.398;5.466;2022-07-29T06:31:38;7.00;;;4.25;;
9420;SDS011;4749;51.398;5.466;2022-07-29T06:34:05;5.72;;;3.60;;
9420;SDS011;4749;51.398;5.466;2022-07-29T06:36:36;5.90;;;3.78;;
9420;SDS011;4749;51.398;5.466;2022-07-29T06:39:05;6.05;;;3.78;;
9420;SDS011;4749;51.398;5.466;2022-07-29T06:41:33;6.97;;;3.47;;
9420;SDS011;4749;51.398;5.466;2022-07-29T06:44:01;4.57;;;3.53;;
9420;SDS011;4749;51.398;5.466;2022-07-29T06:46:30;5.57;;;3.47;;
9420;SDS011;4749;51.398;5.466;2022-07-29T06:48:58;4.47;;;3.35;;
9420;SDS011;4749;51.398;5.466;2022-07-29T06:51:27;4.82;;;2.92;;
9420;SDS011;4749;51.398;5.466;2022-07-29T06:53:55;7.45;;;3.38;;
9420;SDS011;4749;51.398;5.466;2022-07-29T06:56:28;5.05;;;3.70;;
9420;SDS011;4749;51.398;5.466;2022-07-29T06:59:04;4.20;;;2.97;;
9420;SDS011;4749;51.398;5.466;2022-07-29T07:01:36;6.15;;;4.20;;
9420;SDS011;4749;51.398;5.466;2022-07-29T07:04:05;3.40;;;3.00;;
9420;SDS011;4749;51.398;5.466;2022-07-29T07:06:32;7.68;;;3.40;;
9420;SDS011;4749;51.398;5.466;2022-07-29T07:09:00;6.07;;;3.33;;
9420;SDS011;4749;51.398;5.466;2022-07-29T07:11:27;7.47;;;3.75;;
9420;SDS011;4749;51.398;5.466;2022-07-29T07:13:55;5.47;;;3.30;;
9420;SDS011;4749;51.398;5.466;2022-07-29T07:16:28;5.53;;;3.60;;
9420;SDS011;4749;51.398;5.466;2022-07-29T07:18:55;8.48;;;3.85;;
9420;SDS011;4749;51.398;5.466;2022-07-29T07:21:23;5.80;;;3.50;;
9420;SDS011;4749;51.398;5.466;2022-07-29T07:23:50;5.55;;;3.45;;
9420;SDS011;4749;51.398;5.466;2022-07-29T07:26:17;3.50;;;3.03;;
9420;SDS011;4749;51.398;5.466;2022-07-29T07:28:44;3.92;;;3.20;;
9420;SDS011;4749;51.398;5.466;2022-07-29T07:31:11;5.15;;;2.85;;
9420;SDS011;4749;51.398;5.466;2022-07-29T07:33:38;5.47;;;2.50;;
9420;SDS011;4749;51.398;5.466;2022-07-29T07:36:05;3.40;;;2.83;;
9420;SDS011;4749;51.398;5.466;2022-07-29T07:38:32;5.57;;;3.08;;
9420;SDS011;4749;51.398;5.466;2022-07-29T07:41:00;3.97;;;2.72;;
9420;SDS011;4749;51.398;5.466;2022-07-29T07:43:27;3.35;;;2.70;;
9420;SDS011;4749;51.398;5.466;2022-07-29T07:45:54;4.97;;;2.78;;
9420;SDS011;4749;51.398;5.466;2022-07-29T07:48:21;3.40;;;2.67;;
9420;SDS011;4749;51.398;5.466;2022-07-29T07:50:48;4.60;;;2.65;;
9420;SDS011;4749;51.398;5.466;2022-07-29T07:53:17;5.03;;;2.75;;
9420;SDS011;4749;51.398;5.466;2022-07-29T07:55:44;6.18;;;2.70;;
9420;SDS011;4749;51.398;5.466;2022-07-29T07:58:31;4.50;;;2.78;;
9420;SDS011;4749;51.398;5.466;2022-07-29T08:00:59;3.90;;;3.05;;
9420;SDS011;4749;51.398;5.466;2022-07-29T08:03:26;5.88;;;3.28;;
9420;SDS011;4749;51.398;5.466;2022-07-29T08:05:53;5.53;;;2.67;;
9420;SDS011;4749;51.398;5.466;2022-07-29T08:08:20;3.88;;;3.10;;
9420;SDS011;4749;51.398;5.466;2022-07-29T08:10:47;4.30;;;3.00;;
9420;SDS011;4749;51.398;5.466;2022-07-29T08:13:28;4.70;;;2.85;;
9420;SDS011;4749;51.398;5.466;2022-07-29T08:15:56;5.75;;;3.00;;
9420;SDS011;4749;51.398;5.466;2022-07-29T08:18:26;8.55;;;3.60;;
9420;SDS011;4749;51.398;5.466;2022-07-29T08:20:55;4.38;;;3.05;;
9420;SDS011;4749;51.398;5.466;2022-07-29T08:23:23;5.95;;;3.05;;
9420;SDS011;4749;51.398;5.466;2022-07-29T08:26:13;7.65;;;3.42;;
9420;SDS011;4749;51.398;5.466;2022-07-29T08:28:40;7.30;;;4.00;;
9420;SDS011;4749;51.398;5.466;2022-07-29T08:31:12;5.60;;;3.05;;
9420;SDS011;4749;51.398;5.466;2022-07-29T08:33:40;4.53;;;2.95;;
9420;SDS011;4749;51.398;5.466;2022-07-29T08:36:09;5.95;;;2.83;;
9420;SDS011;4749;51.398;5.466;2022-07-29T08:38:36;4.30;;;2.92;;
9420;SDS011;4749;51.398;5.466;2022-07-29T08:41:03;6.13;;;2.95;;
9420;SDS011;4749;51.398;5.466;2022-07-29T08:43:30;8.05;;;3.17;;
9420;SDS011;4749;51.398;5.466;2022-07-29T08:45:58;4.57;;;2.97;;
9420;SDS011;4749;51.398;5.466;2022-07-29T08:48:26;4.35;;;2.97;;
9420;SDS011;4749;51.398;5.466;2022-07-29T08:50:54;7.63;;;2.55;;
9420;SDS011;4749;51.398;5.466;2022-07-29T08:53:24;5.97;;;2.83;;
9420;SDS011;4749;51.398;5.466;2022-07-29T08:55:53;4.13;;;2.90;;
9420;SDS011;4749;51.398;5.466;2022-07-29T08:58:22;2.92;;;2.63;;
9420;SDS011;4749;51.398;5.466;2022-07-29T09:00:54;4.95;;;3.00;;
9420;SDS011;4749;51.398;5.466;2022-07-29T09:03:24;5.82;;;2.88;;
9420;SDS011;4749;51.398;5.466;2022-07-29T09:05:56;4.05;;;2.55;;
9420;SDS011;4749;51.398;5.466;2022-07-29T09:08:25;4.82;;;2.63;;
9420;SDS011;4749;51.398;5.466;2022-07-29T09:10:53;7.90;;;2.67;;
9420;SDS011;4749;51.398;5.466;2022-07-29T09:13:25;4.88;;;2.47;;
9420;SDS011;4749;51.398;5.466;2022-07-29T09:15:52;6.32;;;3.10;;
9420;SDS011;4749;51.398;5.466;2022-07-29T09:18:54;5.22;;;2.65;;
9420;SDS011;4749;51.398;5.466;2022-07-29T09:21:14;4.10;;;2.40;;
9420;SDS011;4749;51.398;5.466;2022-07-29T09:24:07;3.78;;;2.22;;
9420;SDS011;4749;51.398;5.466;2022-07-29T09:26:41;5.45;;;2.47;;
9420;SDS011;4749;51.398;5.466;2022-07-29T09:29:18;4.90;;;2.40;;
9420;SDS011;4749;51.398;5.466;2022-07-29T09:31:49;3.58;;;2.00;;
9420;SDS011;4749;51.398;5.466;2022-07-29T09:34:28;5.80;;;2.70;;
9420;SDS011;4749;51.398;5.466;2022-07-29T09:36:57;4.55;;;2.38;;
9420;SDS011;4749;51.398;5.466;2022-07-29T09:42:04;4.15;;;2.05;;
9420;SDS011;4749;51.398;5.466;2022-07-29T09:47:17;5.97;;;2.33;;
9420;SDS011;4749;51.398;5.466;2022-07-29T09:52:26;7.32;;;2.53;;
9420;SDS011;4749;51.398;5.466;2022-07-29T09:55:05;4.20;;;3.20;;
9420;SDS011;4749;51.398;5.466;2022-07-29T09:57:38;4.53;;;2.67;;
9420;SDS011;4749;51.398;5.466;2022-07-29T10:00:07;6.03;;;2.95;;
9420;SDS011;4749;51.398;5.466;2022-07-29T10:02:37;5.60;;;2.70;;
9420;SDS011;4749;51.398;5.466;2022-07-29T10:05:21;5.78;;;2.80;;
9420;SDS011;4749;51.398;5.466;2022-07-29T10:07:51;3.88;;;2.63;;
9420;SDS011;4749;51.398;5.466;2022-07-29T10:13:01;7.82;;;1.92;;
9420;SDS011;4749;51.398;5.466;2022-07-29T10:15:40;4.53;;;2.25;;
9420;SDS011;4749;51.398;5.466;2022-07-29T10:18:11;4.63;;;2.13;;
9420;SDS011;4749;51.398;5.466;2022-07-29T10:20:39;4.68;;;2.58;;
9420;SDS011;4749;51.398;5.466;2022-07-29T10:23:07;4.65;;;2.30;;
9420;SDS011;4749;51.398;5.466;2022-07-29T10:25:35;4.22;;;2.25;;
9420;SDS011;4749;51.398;5.466;2022-07-29T10:28:02;7.90;;;2.78;;
9420;SDS011;4749;51.398;5.466;2022-07-29T10:30:31;3.83;;;1.88;;
9420;SDS011;4749;51.398;5.466;2022-07-29T10:38:51;5.78;;;2.35;;
9420;SDS011;4749;51.398;5.466;2022-07-29T10:42:10;5.32;;;2.30;;
9420;SDS011;4749;51.398;5.466;2022-07-29T10:45:00;6.07;;;2.97;;
9420;SDS011;4749;51.398;5.466;2022-07-29T10:47:29;5.80;;;2.25;;
9420;SDS011;4749;51.398;5.466;2022-07-29T10:50:04;3.88;;;2.53;;
9420;SDS011;4749;51.398;5.466;2022-07-29T10:52:51;4.72;;;2.70;;
9420;SDS011;4749;51.398;5.466;2022-07-29T10:55:32;4.85;;;2.55;;
9420;SDS011;4749;51.398;5.466;2022-07-29T11:00:50;7.30;;;3.05;;
9420;SDS011;4749;51.398;5.466;2022-07-29T11:06:16;4.68;;;2.42;;
9420;SDS011;4749;51.398;5.466;2022-07-29T11:12:02;5.25;;;2.90;;
9420;SDS011;4749;51.398;5.466;2022-07-29T11:17:28;6.70;;;2.70;;
9420;SDS011;4749;51.398;5.466;2022-07-29T11:23:25;2.83;;;1.90;;
9420;SDS011;4749;51.398;5.466;2022-07-29T11:34:25;3.58;;;1.83;;
9420;SDS011;4749;51.398;5.466;2022-07-29T11:39:39;2.95;;;2.20;;
9420;SDS011;4749;51.398;5.466;2022-07-29T11:45:00;3.03;;;1.92;;
9420;SDS011;4749;51.398;5.466;2022-07-29T11:47:53;2.95;;;2.13;;
9420;SDS011;4749;51.398;5.466;2022-07-29T11:50:46;4.18;;;2.50;;
9420;SDS011;4749;51.398;5.466;2022-07-29T11:53:13;3.58;;;2.45;;
9420;SDS011;4749;51.398;5.466;2022-07-29T11:55:41;2.33;;;2.05;;
9420;SDS011;4749;51.398;5.466;2022-07-29T11:58:21;5.53;;;2.13;;
9420;SDS011;4749;51.398;5.466;2022-07-29T12:00:51;2.38;;;1.50;;
9420;SDS011;4749;51.398;5.466;2022-07-29T12:03:25;4.15;;;1.77;;
9420;SDS011;4749;51.398;5.466;2022-07-29T12:06:02;4.95;;;1.90;;
9420;SDS011;4749;51.398;5.466;2022-07-29T12:09:08;2.88;;;2.28;;
9420;SDS011;4749;51.398;5.466;2022-07-29T12:11:39;4.10;;;2.58;;
9420;SDS011;4749;51.398;5.466;2022-07-29T12:14:23;4.10;;;1.70;;
9420;SDS011;4749;51.398;5.466;2022-07-29T12:16:55;2.60;;;1.42;;
9420;SDS011;4749;51.398;5.466;2022-07-29T12:19:23;3.00;;;1.30;;
9420;SDS011;4749;51.398;5.466;2022-07-29T12:21:53;1.85;;;1.20;;
9420;SDS011;4749;51.398;5.466;2022-07-29T12:24:24;2.92;;;1.58;;
9420;SDS011;4749;51.398;5.466;2022-07-29T12:26:53;4.32;;;1.60;;
9420;SDS011;4749;51.398;5.466;2022-07-29T12:29:27;3.55;;;1.63;;
9420;SDS011;4749;51.398;5.466;2022-07-29T12:32:00;3.20;;;1.60;;
9420;SDS011;4749;51.398;5.466;2022-07-29T12:34:44;2.13;;;1.45;;
9420;SDS011;4749;51.398;5.466;2022-07-29T12:37:12;4.53;;;1.58;;
9420;SDS011;4749;51.398;5.466;2022-07-29T12:39:39;3.10;;;1.58;;
9420;SDS011;4749;51.398;5.466;2022-07-29T12:42:13;2.67;;;1.67;;
9420;SDS011;4749;51.398;5.466;2022-07-29T12:44:47;3.60;;;1.30;;
9420;SDS011;4749;51.398;5.466;2022-07-29T12:47:17;4.07;;;1.67;;
9420;SDS011;4749;51.398;5.466;2022-07-29T12:49:46;3.72;;;1.50;;
9420;SDS011;4749;51.398;5.466;2022-07-29T12:52:30;3.13;;;1.73;;
9420;SDS011;4749;51.398;5.466;2022-07-29T12:55:00;2.17;;;1.40;;
9420;SDS011;4749;51.398;5.466;2022-07-29T12:57:29;3.85;;;1.50;;
9420;SDS011;4749;51.398;5.466;2022-07-29T13:02:38;3.90;;;1.23;;
9420;SDS011;4749;51.398;5.466;2022-07-29T13:05:07;3.65;;;1.40;;
9420;SDS011;4749;51.398;5.466;2022-07-29T13:07:37;4.10;;;1.40;;
9420;SDS011;4749;51.398;5.466;2022-07-29T13:10:22;2.85;;;1.58;;
9420;SDS011;4749;51.398;5.466;2022-07-29T13:13:01;3.75;;;1.20;;
9420;SDS011;4749;51.398;5.466;2022-07-29T13:15:42;3.20;;;1.23;;
9420;SDS011;4749;51.398;5.466;2022-07-29T13:21:12;3.53;;;1.30;;
9420;SDS011;4749;51.398;5.466;2022-07-29T13:23:44;3.30;;;1.42;;
9420;SDS011;4749;51.398;5.466;2022-07-29T13:26:11;2.78;;;1.45;;
9420;SDS011;4749;51.398;5.466;2022-07-29T13:28:38;3.00;;;1.60;;
9420;SDS011;4749;51.398;5.466;2022-07-29T13:31:09;3.72;;;2.05;;
9420;SDS011;4749;51.398;5.466;2022-07-29T13:33:36;2.50;;;1.58;;
9420;SDS011;4749;51.398;5.466;2022-07-29T13:36:04;3.92;;;1.48;;
9420;SDS011;4749;51.398;5.466;2022-07-29T13:38:31;3.67;;;1.67;;
9420;SDS011;4749;51.398;5.466;2022-07-29T13:40:58;6.53;;;1.52;;
9420;SDS011;4749;51.398;5.466;2022-07-29T13:43:25;3.08;;;1.40;;
9420;SDS011;4749;51.398;5.466;2022-07-29T13:45:52;1.92;;;1.13;;
9420;SDS011;4749;51.398;5.466;2022-07-29T13:48:19;3.97;;;1.60;;
9420;SDS011;4749;51.398;5.466;2022-07-29T13:50:47;4.55;;;1.42;;
9420;SDS011;4749;51.398;5.466;2022-07-29T13:53:14;3.15;;;1.50;;
9420;SDS011;4749;51.398;5.466;2022-07-29T13:55:43;2.45;;;1.30;;
9420;SDS011;4749;51.398;5.466;2022-07-29T13:58:10;1.70;;;1.25;;
9420;SDS011;4749;51.398;5.466;2022-07-29T14:00:37;4.95;;;1.30;;
9420;SDS011;4749;51.398;5.466;2022-07-29T14:03:04;4.85;;;1.35;;
9420;SDS011;4749;51.398;5.466;2022-07-29T14:05:32;4.25;;;1.65;;
9420;SDS011;4749;51.398;5.466;2022-07-29T14:07:59;2.63;;;1.38;;
9420;SDS011;4749;51.398;5.466;2022-07-29T14:10:26;2.67;;;1.30;;
9420;SDS011;4749;51.398;5.466;2022-07-29T14:12:53;5.60;;;1.38;;
9420;SDS011;4749;51.398;5.466;2022-07-29T14:15:20;4.65;;;1.30;;
9420;SDS011;4749;51.398;5.466;2022-07-29T14:17:49;7.25;;;1.50;;
9420;SDS011;4749;51.398;5.466;2022-07-29T14:20:16;2.60;;;1.38;;
9420;SDS011;4749;51.398;5.466;2022-07-29T14:22:44;3.60;;;1.58;;
9420;SDS011;4749;51.398;5.466;2022-07-29T14:25:11;2.58;;;1.70;;
9420;SDS011;4749;51.398;5.466;2022-07-29T14:27:41;3.08;;;1.00;;
9420;SDS011;4749;51.398;5.466;2022-07-29T14:30:10;3.88;;;1.60;;
9420;SDS011;4749;51.398;5.466;2022-07-29T14:32:37;6.75;;;1.40;;
9420;SDS011;4749;51.398;5.466;2022-07-29T14:35:05;4.35;;;1.70;;
9420;SDS011;4749;51.398;5.466;2022-07-29T14:37:34;2.20;;;1.08;;
9420;SDS011;4749;51.398;5.466;2022-07-29T14:40:06;3.42;;;1.38;;
9420;SDS011;4749;51.398;5.466;2022-07-29T14:42:35;2.97;;;1.83;;
9420;SDS011;4749;51.398;5.466;2022-07-29T14:45:04;2.30;;;1.30;;
9420;SDS011;4749;51.398;5.466;2022-07-29T14:47:33;2.65;;;1.15;;
9420;SDS011;4749;51.398;5.466;2022-07-29T14:50:00;4.22;;;1.45;;
9420;SDS011;4749;51.398;5.466;2022-07-29T14:52:28;2.83;;;1.23;;
9420;SDS011;4749;51.398;5.466;2022-07-29T14:54:55;4.10;;;1.38;;
9420;SDS011;4749;51.398;5.466;2022-07-29T14:57:22;3.13;;;1.20;;
9420;SDS011;4749;51.398;5.466;2022-07-29T14:59:49;2.30;;;1.17;;
9420;SDS011;4749;51.398;5.466;2022-07-29T15:02:16;5.82;;;1.42;;
9420;SDS011;4749;51.398;5.466;2022-07-29T15:04:44;3.13;;;1.42;;
9420;SDS011;4749;51.398;5.466;2022-07-29T15:07:12;4.30;;;1.35;;
9420;SDS011;4749;51.398;5.466;2022-07-29T15:09:39;3.38;;;1.20;;
9420;SDS011;4749;51.398;5.466;2022-07-29T15:12:15;4.00;;;1.35;;
9420;SDS011;4749;51.398;5.466;2022-07-29T15:14:42;4.15;;;1.27;;
9420;SDS011;4749;51.398;5.466;2022-07-29T15:17:09;4.85;;;1.40;;
9420;SDS011;4749;51.398;5.466;2022-07-29T15:19:37;2.75;;;1.08;;
9420;SDS011;4749;51.398;5.466;2022-07-29T15:22:10;2.35;;;1.10;;
9420;SDS011;4749;51.398;5.466;2022-07-29T15:24:40;2.80;;;1.10;;
9420;SDS011;4749;51.398;5.466;2022-07-29T15:27:08;3.55;;;1.33;;
9420;SDS011;4749;51.398;5.466;2022-07-29T15:29:40;2.95;;;1.10;;
9420;SDS011;4749;51.398;5.466;2022-07-29T15:32:12;2.45;;;1.30;;
9420;SDS011;4749;51.398;5.466;2022-07-29T15:34:39;4.47;;;1.50;;
9420;SDS011;4749;51.398;5.466;2022-07-29T15:37:06;3.83;;;1.38;;
9420;SDS011;4749;51.398;5.466;2022-07-29T15:39:33;1.83;;;1.13;;
9420;SDS011;4749;51.398;5.466;2022-07-29T15:42:01;3.08;;;1.25;;
9420;SDS011;4749;51.398;5.466;2022-07-29T15:44:29;2.28;;;1.15;;
9420;SDS011;4749;51.398;5.466;2022-07-29T15:46:56;4.45;;;1.27;;
9420;SDS011;4749;51.398;5.466;2022-07-29T15:49:30;3.90;;;1.40;;
9420;SDS011;4749;51.398;5.466;2022-07-29T15:52:18;1.58;;;1.10;;
9420;SDS011;4749;51.398;5.466;2022-07-29T15:54:52;5.30;;;1.00;;
9420;SDS011;4749;51.398;5.466;2022-07-29T15:57:21;1.60;;;1.27;;
9420;SDS011;4749;51.398;5.466;2022-07-29T15:59:50;2.55;;;1.30;;
9420;SDS011;4749;51.398;5.466;2022-07-29T16:02:17;3.50;;;1.30;;
9420;SDS011;4749;51.398;5.466;2022-07-29T16:04:45;4.18;;;1.48;;
9420;SDS011;4749;51.398;5.466;2022-07-29T16:07:12;6.18;;;2.08;;
9420;SDS011;4749;51.398;5.466;2022-07-29T16:09:40;2.58;;;1.08;;
9420;SDS011;4749;51.398;5.466;2022-07-29T16:12:09;3.65;;;1.20;;
9420;SDS011;4749;51.398;5.466;2022-07-29T16:14:41;2.85;;;1.42;;
9420;SDS011;4749;51.398;5.466;2022-07-29T16:17:09;2.35;;;1.30;;
9420;SDS011;4749;51.398;5.466;2022-07-29T16:19:40;5.20;;;1.60;;
9420;SDS011;4749;51.398;5.466;2022-07-29T16:22:08;1.67;;;1.30;;
9420;SDS011;4749;51.398;5.466;2022-07-29T16:24:37;2.28;;;0.90;;
9420;SDS011;4749;51.398;5.466;2022-07-29T16:27:04;6.13;;;1.92;;
9420;SDS011;4749;51.398;5.466;2022-07-29T16:29:35;2.08;;;1.30;;
9420;SDS011;4749;51.398;5.466;2022-07-29T16:32:03;2.95;;;1.55;;
9420;SDS011;4749;51.398;5.466;2022-07-29T16:34:32;3.15;;;1.23;;
9420;SDS011;4749;51.398;5.466;2022-07-29T16:37:02;3.30;;;1.35;;
9420;SDS011;4749;51.398;5.466;2022-07-29T16:39:33;4.85;;;1.30;;